Time;durP1;ratioP1;P1;durP2;ratioP2;P2;SDS_P1;SDS_P2;PMS_P1;PMS_P2;Temp;Humidity;BMP_temperature;BMP_pressure;BME280_temperature;BME280_humidity;BME280_pressure;Samples;Min_cycle;Max_cycle;Signal;HPM_P1;HPM_P2
2022/07/02 00:01:30;;;;;;;6.50;2.33;;;;;;;25.25;59.18;100132.78;5078292;28;20071;-60
2022/07/02 00:04:06;;;;;;;6.07;1.53;;;;;;;25.17;58.58;100124.53;5077590;28;20363;-61
2022/07/02 00:06:38;;;;;;;9.70;1.90;;;;;;;25.23;59.48;100124.03;5081944;28;20084;-61
2022/07/02 00:09:09;;;;;;;7.23;1.77;;;;;;;25.48;60.55;100124.75;5081780;28;20310;-61
2022/07/02 00:11:42;;;;;;;10.47;1.60;;;;;;;25.59;59.05;100114.88;5081723;28;20120;-60
2022/07/02 00:14:13;;;;;;;10.97;1.90;;;;;;;25.68;58.78;100118.63;5081807;28;20248;-61
2022/07/02 00:16:46;;;;;;;5.73;1.40;;;;;;;25.83;58.57;100106.69;5081658;28;20044;-61
2022/07/02 00:19:19;;;;;;;8.00;1.70;;;;;;;25.95;57.23;100115.53;5081802;28;20048;-60
2022/07/02 00:21:50;;;;;;;8.77;1.93;;;;;;;26.10;58.34;100116.06;5081239;28;20067;-61
2022/07/02 00:24:21;;;;;;;5.47;1.67;;;;;;;26.27;56.51;100122.69;5081679;28;20072;-60
2022/07/02 00:26:57;;;;;;;7.03;1.90;;;;;;;26.33;56.49;100107.94;5081491;28;20272;-61
2022/07/02 00:29:35;;;;;;;13.47;2.07;;;;;;;26.41;57.18;100116.16;5081464;28;20056;-60
2022/07/02 00:32:07;;;;;;;8.00;2.00;;;;;;;26.51;54.86;100119.78;5081307;28;20078;-59
2022/07/02 00:34:44;;;;;;;9.20;1.87;;;;;;;26.54;55.13;100116.88;5081174;28;20131;-60
2022/07/02 00:37:16;;;;;;;4.67;1.60;;;;;;;26.62;55.64;100108.16;5081288;28;20090;-61
2022/07/02 00:39:46;;;;;;;5.53;1.60;;;;;;;26.70;54.50;100110.19;5081151;28;20067;-61
2022/07/02 00:42:17;;;;;;;6.23;2.07;;;;;;;26.75;53.62;100107.94;5081267;28;20056;-61
2022/07/02 00:44:49;;;;;;;7.87;1.97;;;;;;;26.68;54.17;100097.78;5081063;28;20255;-61
2022/07/02 00:47:21;;;;;;;11.10;2.17;;;;;;;26.82;54.99;100103.75;5081123;28;20064;-61
2022/07/02 00:49:53;;;;;;;4.83;1.73;;;;;;;26.92;53.99;100110.00;5081094;28;20064;-61
2022/07/02 00:52:24;;;;;;;9.57;1.70;;;;;;;27.02;53.54;100104.69;5080947;28;20048;-61
2022/07/02 00:54:55;;;;;;;4.30;1.70;;;;;;;27.14;52.79;100097.41;5081068;28;20078;-60
2022/07/02 00:57:25;;;;;;;5.83;1.80;;;;;;;27.15;52.31;100109.81;5080871;28;20063;-61
2022/07/02 00:59:56;;;;;;;5.60;2.20;;;;;;;27.18;51.59;100105.06;5080965;28;20303;-61
2022/07/02 01:02:29;;;;;;;5.03;1.90;;;;;;;27.19;51.46;100100.56;5080867;28;20060;-60
2022/07/02 01:05:02;;;;;;;6.60;1.97;;;;;;;27.22;51.50;100094.91;5080571;28;20342;-61
2022/07/02 01:07:34;;;;;;;6.57;2.00;;;;;;;27.23;52.27;100086.75;5080765;28;20056;-60
2022/07/02 01:10:19;;;;;;;5.70;1.90;;;;;;;27.34;52.11;100088.47;5081023;28;20060;-60
2022/07/02 01:12:51;;;;;;;7.97;1.80;;;;;;;27.45;52.33;100085.66;5080687;28;20056;-60
2022/07/02 01:15:22;;;;;;;3.13;1.67;;;;;;;27.46;51.79;100086.53;5080081;28;20056;-61
2022/07/02 01:17:52;;;;;;;3.80;1.70;;;;;;;27.51;51.23;100079.75;5080585;28;20076;-59
2022/07/02 01:20:25;;;;;;;4.23;2.07;;;;;;;27.48;51.45;100069.28;5080635;28;20064;-61
2022/07/02 01:22:57;;;;;;;7.60;2.07;;;;;;;27.43;51.67;100076.91;5080412;28;20048;-60
2022/07/02 01:25:27;;;;;;;3.07;1.97;;;;;;;27.48;51.27;100069.28;5080583;28;20048;-60
2022/07/02 01:27:58;;;;;;;7.50;1.90;;;;;;;27.62;52.87;100070.72;5080486;28;20064;-61
2022/07/02 01:30:29;;;;;;;3.30;1.70;;;;;;;27.79;51.47;100066.50;5080415;28;20101;-61
2022/07/02 01:32:59;;;;;;;13.60;2.60;;;;;;;27.87;51.84;100061.28;5080226;28;20074;-62
2022/07/02 01:35:30;;;;;;;20.73;2.90;;;;;;;27.83;50.78;100062.56;5080064;28;20066;-60
2022/07/02 01:38:02;;;;;;;3.17;1.73;;;;;;;27.82;51.32;100060.03;5080214;28;20192;-60
2022/07/02 01:40:33;;;;;;;5.90;1.90;;;;;;;27.91;50.95;100065.41;5080090;28;20056;-60
2022/07/02 01:43:03;;;;;;;6.77;1.90;;;;;;;27.95;51.26;100053.34;5080446;28;20071;-61
2022/07/02 01:45:34;;;;;;;26.97;3.33;;;;;;;28.04;50.93;100050.84;5080196;28;20329;-61
2022/07/02 01:48:05;;;;;;;8.53;1.97;;;;;;;27.81;49.75;100024.25;5080168;28;20044;-62
2022/07/02 01:50:37;;;;;;;5.77;1.80;;;;;;;28.14;51.58;100048.97;5080338;28;20067;-61
2022/07/02 01:53:09;;;;;;;14.47;2.43;;;;;;;28.36;51.01;100048.66;5080029;28;20066;-61
2022/07/02 01:55:39;;;;;;;5.77;2.00;;;;;;;28.39;49.86;100045.66;5079825;28;20133;-61
2022/07/02 01:58:10;;;;;;;8.47;2.03;;;;;;;28.46;50.51;100045.13;5079703;28;20323;-61
2022/07/02 02:00:41;;;;;;;4.77;1.90;;;;;;;28.46;49.30;100048.66;5079626;28;20063;-61
2022/07/02 02:03:11;;;;;;;6.17;2.10;;;;;;;28.51;50.22;100040.16;5079682;28;20049;-61
2022/07/02 02:05:42;;;;;;;3.40;2.10;;;;;;;28.57;49.74;100044.94;5079493;28;20109;-61
2022/07/02 02:08:14;;;;;;;5.40;1.40;;;;;;;28.67;49.83;100037.69;5079575;28;20244;-61
2022/07/02 02:10:45;;;;;;;8.27;1.70;;;;;;;28.73;49.61;100031.75;5079561;28;20064;-61
2022/07/02 02:13:15;;;;;;;9.50;2.43;;;;;;;28.78;49.84;100031.28;5079560;28;20115;-62
2022/07/02 02:15:46;;;;;;;6.27;2.20;;;;;;;28.78;49.81;100029.44;5079724;28;20365;-62
2022/07/02 02:18:17;;;;;;;7.40;1.97;;;;;;;28.82;49.12;100021.91;5079427;28;20116;-61
2022/07/02 02:20:47;;;;;;;4.93;1.60;;;;;;;28.86;49.54;100038.63;5079469;28;20065;-61
2022/07/02 02:23:19;;;;;;;4.67;1.70;;;;;;;28.98;50.13;100026.66;5079515;28;20040;-60
2022/07/02 02:25:50;;;;;;;9.87;2.13;;;;;;;28.98;48.73;100032.03;5079363;28;20060;-61
2022/07/02 02:28:22;;;;;;;7.93;1.90;;;;;;;28.92;48.85;100032.63;5078716;28;20074;-60
2022/07/02 02:30:53;;;;;;;3.63;1.37;;;;;;;29.02;49.56;100018.13;5078997;28;20310;-61
2022/07/02 02:33:23;;;;;;;6.20;1.63;;;;;;;29.09;49.05;100023.78;5079051;28;20221;-61
2022/07/02 02:35:54;;;;;;;4.67;1.70;;;;;;;29.08;48.74;100019.44;5079046;28;20116;-61
2022/07/02 02:38:26;;;;;;;3.90;1.73;;;;;;;29.09;48.86;100013.03;5078860;28;20062;-61
2022/07/02 02:40:57;;;;;;;10.93;1.80;;;;;;;29.16;48.58;100006.06;5079104;28;20056;-60
2022/07/02 02:43:28;;;;;;;4.50;1.57;;;;;;;29.28;47.83;99995.06;5078639;28;20115;-61
2022/07/02 02:45:58;;;;;;;4.10;1.80;;;;;;;29.38;48.69;100006.59;5078969;28;20114;-61
2022/07/02 02:48:29;;;;;;;7.37;2.07;;;;;;;29.54;48.82;100001.41;5078999;28;20116;-61
2022/07/02 02:51:00;;;;;;;9.40;1.90;;;;;;;29.59;48.21;99993.69;5078913;28;20217;-61
2022/07/02 02:53:33;;;;;;;8.73;2.30;;;;;;;29.64;48.39;100002.16;5078917;28;20123;-60
2022/07/02 02:56:04;;;;;;;6.13;1.60;;;;;;;29.63;47.82;99984.31;5078989;28;20044;-61
2022/07/02 02:58:34;;;;;;;7.90;1.90;;;;;;;29.65;47.66;99994.91;5078825;28;20059;-61
2022/07/02 03:01:06;;;;;;;6.57;1.80;;;;;;;29.78;47.79;99986.47;5079044;28;20161;-62
2022/07/02 03:03:36;;;;;;;43.03;3.57;;;;;;;29.73;47.04;99967.25;5078589;28;20301;-61
2022/07/02 03:06:07;;;;;;;9.33;2.80;;;;;;;29.79;48.32;99966.63;5078644;28;20068;-62
2022/07/02 03:08:39;;;;;;;18.43;2.70;;;;;;;29.91;47.52;99965.38;5078845;28;20075;-62
2022/07/02 03:11:10;;;;;;;40.60;4.63;;;;;;;30.03;47.60;99963.25;5078730;28;20091;-62
2022/07/02 03:13:41;;;;;;;6.37;1.90;;;;;;;30.15;47.00;99961.16;5078843;28;20275;-62
2022/07/02 03:16:11;;;;;;;4.33;1.90;;;;;;;30.08;46.33;99960.97;5078630;28;20336;-62
2022/07/02 03:18:42;;;;;;;51.07;4.33;;;;;;;30.09;46.64;99954.56;5079137;28;20048;-62
2022/07/02 03:21:12;;;;;;;28.27;4.47;;;;;;;30.18;46.53;99953.63;5078498;28;20083;-59
2022/07/02 03:23:45;;;;;;;14.43;2.40;;;;;;;30.31;46.53;99950.50;5078473;28;20175;-61
2022/07/02 03:26:15;;;;;;;12.23;2.37;;;;;;;30.27;44.82;99943.75;5078429;28;20383;-59
2022/07/02 03:28:46;;;;;;;7.67;1.90;;;;;;;30.30;45.12;99944.28;5078491;28;20228;-61
2022/07/02 03:31:17;;;;;;;10.83;2.60;;;;;;;30.33;45.11;99943.13;5078435;28;20090;-60
2022/07/02 03:33:47;;;;;;;8.33;1.83;;;;;;;30.41;44.66;99940.44;5078503;28;20400;-61
2022/07/02 03:36:18;;;;;;;11.40;2.00;;;;;;;30.27;43.77;99938.34;5078494;28;20040;-59
2022/07/02 03:38:51;;;;;;;11.13;2.20;;;;;;;30.35;45.17;99930.28;5079473;28;20056;-60
2022/07/02 03:41:21;;;;;;;10.53;2.40;;;;;;;30.45;45.36;99933.75;5082498;28;20067;-62
2022/07/02 03:43:52;;;;;;;10.80;1.90;;;;;;;30.50;44.15;99928.72;5082117;28;20064;-61
2022/07/02 03:46:22;;;;;;;7.23;2.73;;;;;;;30.46;44.10;99927.34;5082163;28;20075;-61
2022/07/02 03:48:53;;;;;;;17.53;2.40;;;;;;;30.25;44.69;99894.53;5073739;28;20107;-61
2022/07/02 03:51:24;;;;;;;16.97;2.33;;;;;;;30.42;44.97;99915.16;5069464;28;20041;-60
2022/07/02 03:53:56;;;;;;;47.93;4.77;;;;;;;30.46;45.07;99904.94;5017945;28;20045;-61
2022/07/02 03:56:27;;;;;;;10.07;1.80;;;;;;;30.55;45.22;99905.78;5046170;28;20061;-61
2022/07/02 03:58:57;;;;;;;12.93;1.93;;;;;;;30.61;43.73;99897.06;5049721;28;20056;-61
2022/07/02 04:01:28;;;;;;;12.17;1.70;;;;;;;30.66;44.20;99900.13;5043424;28;20360;-60
2022/07/02 04:03:59;;;;;;;6.77;1.60;;;;;;;30.69;44.10;99899.78;5047149;28;20051;-60
2022/07/02 05:00:39;;;;;;;36.17;20.30;;;;;;;31.03;42.40;99869.19;5143339;27;20555;-66
2022/07/02 05:03:10;;;;;;;84.77;15.97;;;;;;;31.03;42.42;99866.47;5121447;28;20070;-67
2022/07/02 05:05:40;;;;;;;12.57;2.53;;;;;;;30.78;42.30;99831.38;5120586;28;20110;-69
2022/07/02 05:08:11;;;;;;;18.23;4.57;;;;;;;30.90;43.01;99865.16;5120991;28;20062;-70
2022/07/02 05:10:41;;;;;;;22.13;12.83;;;;;;;30.99;43.47;99857.06;5121483;28;20055;-67
2022/07/02 05:13:12;;;;;;;40.50;22.83;;;;;;;31.00;42.62;99853.34;5122374;28;20238;-70
2022/07/02 05:15:46;;;;;;;15.30;8.67;;;;;;;31.04;43.09;99854.69;5122413;28;20059;-67
2022/07/02 05:18:17;;;;;;;30.80;8.23;;;;;;;31.06;42.72;99855.38;5122217;28;20055;-70
2022/07/02 05:20:48;;;;;;;9.57;3.60;;;;;;;31.11;44.05;99853.00;5122729;28;20048;-71
2022/07/02 05:23:19;;;;;;;8.27;2.07;;;;;;;31.15;43.20;99846.25;5122418;28;20762;-70
2022/07/02 05:25:49;;;;;;;12.60;2.97;;;;;;;31.15;42.52;99846.25;5122513;28;20215;-69
2022/07/02 05:28:20;;;;;;;8.57;3.03;;;;;;;31.17;43.17;99834.28;5122823;28;20039;-69
2022/07/02 05:30:53;;;;;;;36.53;24.37;;;;;;;31.21;42.98;99839.34;5122371;28;20342;-70
2022/07/02 05:33:23;;;;;;;18.83;10.40;;;;;;;31.17;41.71;99836.97;5121956;28;20066;-69
2022/07/02 05:35:54;;;;;;;19.10;5.03;;;;;;;31.21;42.63;99834.78;5122536;28;20082;-69
2022/07/02 05:38:25;;;;;;;65.33;6.90;;;;;;;31.10;42.27;99810.84;5122559;28;20293;-71
2022/07/02 05:40:55;;;;;;;16.33;2.27;;;;;;;31.34;42.13;99824.31;5121540;28;20105;-70
2022/07/02 05:43:26;;;;;;;14.77;1.90;;;;;;;31.44;42.87;99829.56;5122276;28;20347;-69
2022/07/02 05:45:58;;;;;;;4.87;1.57;;;;;;;31.43;42.95;99821.63;5122256;28;20104;-71
2022/07/02 05:48:28;;;;;;;7.70;1.57;;;;;;;31.28;41.91;99798.03;5122383;28;20342;-68
2022/07/02 05:50:59;;;;;;;37.23;25.70;;;;;;;31.30;42.19;99820.28;5121561;28;20377;-68
2022/07/02 05:53:30;;;;;;;24.37;12.63;;;;;;;31.25;41.75;99806.47;5121949;28;20415;-69
2022/07/02 05:56:00;;;;;;;14.83;8.13;;;;;;;31.26;42.50;99810.84;5122002;28;20056;-68
2022/07/02 05:58:31;;;;;;;8.87;2.47;;;;;;;31.34;41.92;99812.69;5121554;28;20063;-69
2022/07/02 06:01:03;;;;;;;4.30;2.50;;;;;;;31.37;41.20;99813.16;5110569;28;20052;-68
2022/07/02 06:03:34;;;;;;;8.93;2.23;;;;;;;31.32;41.97;99815.53;5108070;28;20246;-70
2022/07/02 06:08:52;;;;;;;4.78;1.27;;;;;;;31.06;42.31;99809.50;5108272;28;20341;-69
2022/07/02 06:11:22;;;;;;;9.17;1.90;;;;;;;31.04;43.05;99817.75;5107898;28;20040;-68
2022/07/02 06:13:53;;;;;;;4.40;1.30;;;;;;;30.95;42.58;99818.75;5108044;28;20059;-67
2022/07/02 06:16:27;;;;;;;6.67;1.60;;;;;;;30.79;42.57;99818.72;5107752;28;20304;-67
2022/07/02 06:18:58;;;;;;;12.13;1.67;;;;;;;30.72;43.35;99813.97;5107813;28;20067;-73
2022/07/02 06:21:28;;;;;;;18.87;14.20;;;;;;;30.67;43.88;99815.50;5107871;28;20062;-69
2022/07/02 06:23:59;;;;;;;54.97;34.87;;;;;;;30.72;44.22;99819.38;5108278;28;20063;-67
2022/07/02 06:26:30;;;;;;;35.60;20.20;;;;;;;30.75;43.75;99820.91;5108146;28;20058;-68
2022/07/02 06:29:00;;;;;;;27.47;16.23;;;;;;;30.86;43.65;99815.22;5108279;28;20342;-67
2022/07/02 06:31:32;;;;;;;16.87;9.57;;;;;;;30.80;43.69;99815.84;5107759;28;20386;-66
2022/07/02 06:34:03;;;;;;;14.43;3.57;;;;;;;30.70;44.41;99809.75;5108086;28;20086;-68
2022/07/02 06:36:34;;;;;;;10.57;3.93;;;;;;;30.62;44.38;99810.59;5106106;28;20121;-67
2022/07/02 06:39:04;;;;;;;22.00;5.40;;;;;;;30.47;44.16;99807.69;5107555;28;20056;-68
2022/07/02 06:44:22;;;;;;;10.40;2.53;;;;;;;30.50;44.82;99804.69;5107567;28;20051;-68
2022/07/02 06:46:54;;;;;;;8.07;2.37;;;;;;;30.51;45.84;99808.22;5107581;28;20100;-67
2022/07/02 06:49:25;;;;;;;7.70;2.40;;;;;;;30.40;44.90;99809.34;5107387;28;20331;-68
2022/07/02 06:51:55;;;;;;;6.93;2.30;;;;;;;30.30;45.02;99808.66;5107602;28;20047;-68
2022/07/02 06:54:26;;;;;;;4.47;1.90;;;;;;;30.32;44.73;99806.66;5107620;28;20067;-68
2022/07/02 06:56:56;;;;;;;40.83;3.53;;;;;;;30.37;45.79;99804.31;5107396;28;20067;-68
2022/07/02 06:59:27;;;;;;;17.43;2.23;;;;;;;30.45;45.78;99801.66;5105904;28;20052;-68
2022/07/02 07:01:59;;;;;;;13.43;2.27;;;;;;;30.49;44.45;99805.69;5103503;28;20059;-68
2022/07/02 07:04:42;;;;;;;13.87;1.97;;;;;;;30.45;44.71;99807.03;5099552;28;20055;-68
2022/07/02 07:07:13;;;;;;;6.97;2.10;;;;;;;30.50;44.96;99801.13;5100169;28;20274;-68
2022/07/02 07:09:43;;;;;;;5.83;1.80;;;;;;;30.57;44.08;99799.47;5096386;28;20055;-68
2022/07/02 07:12:14;;;;;;;9.37;2.63;;;;;;;30.58;43.84;99800.31;5088016;28;20072;-68
2022/07/02 07:14:45;;;;;;;7.00;2.50;;;;;;;30.31;44.04;99794.19;5080085;28;20048;-68
2022/07/02 07:17:17;;;;;;;9.50;2.13;;;;;;;30.07;44.65;99793.06;5080217;28;20319;-68
2022/07/02 07:19:48;;;;;;;13.03;2.73;;;;;;;29.82;45.07;99794.78;5080013;28;20048;-68
2022/07/02 07:22:18;;;;;;;8.97;2.00;;;;;;;29.47;45.88;99790.38;5080199;28;20044;-67
2022/07/02 07:24:49;;;;;;;14.57;2.07;;;;;;;29.14;46.54;99795.53;5080205;28;20114;-67
2022/07/02 07:27:20;;;;;;;62.60;5.20;;;;;;;28.97;47.08;99804.44;5079934;28;20202;-67
2022/07/02 07:29:51;;;;;;;7.67;2.33;;;;;;;28.94;47.18;99804.75;5079960;28;20097;-67
2022/07/02 07:32:23;;;;;;;22.37;2.27;;;;;;;28.97;47.39;99804.44;5080038;28;20201;-66
2022/07/02 07:34:54;;;;;;;10.00;2.33;;;;;;;29.04;47.74;99805.50;5080046;28;20052;-66
2022/07/02 07:37:24;;;;;;;10.57;2.37;;;;;;;29.26;47.63;99808.75;5080115;28;20102;-66
2022/07/02 07:39:55;;;;;;;9.30;1.80;;;;;;;29.48;47.01;99802.84;5079684;28;20277;-67
2022/07/02 07:42:27;;;;;;;32.27;3.43;;;;;;;29.65;46.95;99804.66;5079993;28;20062;-67
2022/07/02 07:44:57;;;;;;;9.70;2.07;;;;;;;29.79;46.60;99805.06;5079708;28;20109;-66
2022/07/02 07:47:30;;;;;;;4.57;1.70;;;;;;;29.85;46.31;99804.41;5079535;28;20052;-68
2022/07/02 07:50:00;;;;;;;7.57;2.20;;;;;;;29.93;46.58;99800.91;5079582;28;20240;-68
2022/07/02 07:52:31;;;;;;;7.73;2.27;;;;;;;29.99;46.92;99806.50;5079716;28;20044;-67
2022/07/02 07:55:01;;;;;;;15.70;3.00;;;;;;;29.99;46.65;99797.59;5079786;28;20114;-67
2022/07/02 07:57:34;;;;;;;25.60;2.70;;;;;;;29.80;46.34;99804.03;5079330;28;20086;-66
2022/07/02 08:00:06;;;;;;;94.43;8.37;;;;;;;29.36;47.40;99774.50;5079233;28;20060;-65
2022/07/02 08:02:39;;;;;;;7.10;2.00;;;;;;;29.38;47.62;99802.06;5079381;28;20056;-66
2022/07/02 08:05:10;;;;;;;6.50;2.10;;;;;;;29.27;47.26;99800.50;5079312;28;20276;-65
2022/07/02 08:07:42;;;;;;;19.20;3.30;;;;;;;29.21;47.41;99796.59;5079386;28;20044;-66
2022/07/02 08:10:17;;;;;;;18.23;3.00;;;;;;;29.23;47.76;99791.91;5081502;28;20076;-67
2022/07/02 08:12:48;;;;;;;13.93;2.57;;;;;;;29.22;47.43;99798.25;5080939;28;20056;-65
2022/07/02 08:15:19;;;;;;;8.67;2.27;;;;;;;28.99;46.81;99802.44;5099378;28;20094;-67
2022/07/02 08:17:51;;;;;;;48.77;5.60;;;;;;;28.67;47.93;99795.75;5096722;28;20077;-64
2022/07/02 08:20:22;;;;;;;43.80;6.03;;;;;;;28.03;49.03;99751.91;5092351;28;20093;-65
2022/07/02 08:22:53;;;;;;;21.37;3.63;;;;;;;28.11;49.08;99796.78;5099039;28;20365;-66
2022/07/02 08:25:23;;;;;;;17.50;3.77;;;;;;;27.89;49.72;99798.88;5099407;28;20098;-66
2022/07/02 08:27:54;;;;;;;23.63;4.63;;;;;;;27.65;50.72;99790.44;5099139;28;20115;-65
2022/07/02 08:30:25;;;;;;;10.60;2.57;;;;;;;27.46;51.80;99799.41;5097360;28;20308;-66
2022/07/02 08:32:57;;;;;;;32.03;3.90;;;;;;;27.33;52.37;99802.38;5098286;28;20052;-64
2022/07/02 08:35:28;;;;;;;15.37;4.80;;;;;;;27.29;52.09;99796.47;5099115;28;20054;-65
2022/07/02 08:37:58;;;;;;;19.50;4.40;;;;;;;27.28;52.08;99810.88;5099350;28;20278;-65
2022/07/02 08:40:31;;;;;;;12.53;3.27;;;;;;;27.33;51.88;99813.13;5096965;28;20059;-64
2022/07/02 08:43:02;;;;;;;9.93;1.57;;;;;;;27.11;49.27;99782.94;5078731;28;20087;-65
2022/07/02 08:45:33;;;;;;;16.70;2.20;;;;;;;27.30;48.63;99813.41;5079296;28;20052;-64
2022/07/02 08:48:07;;;;;;;18.93;2.50;;;;;;;27.33;48.93;99818.47;5078862;28;20052;-64
2022/07/02 08:50:38;;;;;;;9.83;2.50;;;;;;;27.33;48.90;99813.13;5081025;28;20048;-65
2022/07/02 08:53:10;;;;;;;8.30;1.70;;;;;;;27.35;48.77;99808.47;5020779;28;20059;-65
2022/07/02 08:55:42;;;;;;;14.33;2.20;;;;;;;27.40;48.91;99814.22;5037874;28;20202;-64
2022/07/02 08:58:13;;;;;;;5.20;1.60;;;;;;;27.40;49.21;99808.88;5037332;28;20049;-64
2022/07/02 09:00:44;;;;;;;17.63;2.43;;;;;;;27.37;49.23;99789.53;5037450;28;20111;-64
2022/07/02 09:03:20;;;;;;;13.70;1.70;;;;;;;27.56;49.27;99804.72;5035547;28;20224;-64
2022/07/02 09:05:52;;;;;;;1.73;1.00;;;;;;;27.40;49.27;99782.03;5040718;28;20061;-64
2022/07/02 09:08:24;;;;;;;10.87;1.40;;;;;;;27.47;49.86;99809.97;5042681;28;20052;-66
2022/07/02 09:10:55;;;;;;;30.03;3.03;;;;;;;27.33;50.57;99813.13;5042275;28;20085;-64
2022/07/02 09:13:26;;;;;;;7.70;1.70;;;;;;;27.13;51.16;99812.25;5042908;28;20232;-64
2022/07/02 09:15:57;;;;;;;16.20;1.73;;;;;;;26.94;51.82;99813.13;5041544;28;20499;-64
2022/07/02 09:18:30;;;;;;;48.70;4.20;;;;;;;26.78;52.46;99820.88;5044123;28;20084;-64
2022/07/02 09:21:18;;;;;;;13.10;2.10;;;;;;;26.61;52.79;99825.94;5043833;28;20056;-64
2022/07/02 09:23:50;;;;;;;6.87;1.50;;;;;;;26.38;53.11;99827.13;5044187;28;20067;-65
2022/07/02 09:26:21;;;;;;;86.20;6.87;;;;;;;26.14;53.10;99819.47;5042264;28;20064;-65
2022/07/02 09:29:00;;;;;;;22.80;3.47;;;;;;;25.93;53.81;99827.53;5043486;28;20048;-64
2022/07/02 09:31:30;;;;;;;;;;;;;;;25.82;54.16;99821.25;5045160;28;20053;-65
2022/07/02 09:34:02;;;;;;;66.93;43.70;;;;;;;25.60;54.52;99821.44;5044276;28;19928;-65
2022/07/02 09:36:37;;;;;;;468.03;341.37;;;;;;;25.38;54.91;99823.25;5047526;28;20103;-66
2022/07/02 09:39:08;;;;;;;454.50;350.93;;;;;;;25.19;54.87;99825.81;5048256;28;20053;-66
2022/07/02 09:41:45;;;;;;;185.43;140.43;;;;;;;25.05;54.99;99826.09;5048020;28;20105;-65
2022/07/02 09:44:16;;;;;;;71.43;53.43;;;;;;;24.91;55.13;99830.78;5048542;28;20049;-64
2022/07/02 09:46:46;;;;;;;24.67;16.03;;;;;;;24.80;55.68;99830.81;5046865;28;20044;-63
2022/07/02 09:49:19;;;;;;;8.73;6.43;;;;;;;24.74;56.29;99836.66;5048129;28;20118;-64
2022/07/02 09:51:53;;;;;;;11.27;3.37;;;;;;;24.60;56.78;99831.59;5048226;28;20240;-65
2022/07/02 09:54:25;;;;;;;11.97;9.63;;;;;;;24.54;57.61;99844.47;5048256;28;20114;-65
2022/07/02 09:56:56;;;;;;;49.83;6.63;;;;;;;24.39;58.41;99851.03;5048122;28;20046;-65
2022/07/02 09:59:27;;;;;;;22.60;10.50;;;;;;;24.21;58.93;99836.47;5047847;28;20139;-61
2022/07/02 10:01:58;;;;;;;18.53;13.17;;;;;;;24.16;59.10;99844.00;5047854;28;20245;-63
2022/07/02 10:04:34;;;;;;;22.13;10.03;;;;;;;24.04;58.89;99846.69;5047665;28;20480;-63
2022/07/02 10:07:05;;;;;;;20.00;12.67;;;;;;;23.95;59.33;99857.25;5047567;28;20054;-65
2022/07/02 10:09:39;;;;;;;8.27;4.43;;;;;;;23.83;59.29;99848.38;5048064;28;20065;-64
2022/07/02 10:12:10;;;;;;;13.10;7.97;;;;;;;23.73;59.23;99852.72;5047813;28;20321;-61
2022/07/02 10:14:42;;;;;;;10.33;6.43;;;;;;;23.64;59.23;99855.13;5047743;28;20095;-63
2022/07/02 10:17:15;;;;;;;24.27;5.13;;;;;;;23.53;59.15;99852.41;5047803;28;20324;-63
2022/07/02 10:19:48;;;;;;;24.03;5.57;;;;;;;23.45;59.28;99855.69;5047841;28;20069;-64
2022/07/02 10:22:22;;;;;;;20.90;6.50;;;;;;;23.12;60.08;99812.94;5047424;28;20091;-64
2022/07/02 10:24:53;;;;;;;13.97;6.07;;;;;;;23.35;60.69;99853.84;5047711;28;20094;-63
2022/07/02 10:27:25;;;;;;;8.90;2.77;;;;;;;23.24;62.01;99858.16;5048035;28;20448;-62
2022/07/02 10:29:55;;;;;;;36.37;6.33;;;;;;;23.08;62.27;99854.94;5046577;28;20094;-64
2022/07/02 10:32:34;;;;;;;32.00;5.80;;;;;;;22.64;62.90;99811.16;5047786;28;20061;-63
2022/07/02 10:35:14;;;;;;;34.10;10.48;;;;;;;22.79;63.27;99852.63;5047181;28;20072;-63
2022/07/02 10:37:46;;;;;;;34.47;15.13;;;;;;;22.68;63.61;99865.00;5047897;28;20217;-62
2022/07/02 10:40:19;;;;;;;35.63;18.07;;;;;;;22.63;64.36;99862.69;5047466;28;20052;-62
2022/07/02 10:42:53;;;;;;;14.30;5.87;;;;;;;22.45;64.49;99858.72;5047298;28;20246;-62
2022/07/02 10:45:24;;;;;;;12.57;3.53;;;;;;;22.43;64.71;99873.94;5045667;28;20057;-62
2022/07/02 10:48:06;;;;;;;29.03;3.00;;;;;;;22.32;64.84;99872.91;5047126;28;20306;-62
2022/07/02 10:50:46;;;;;;;6.43;2.20;;;;;;;22.17;64.87;99865.97;5046794;28;20053;-62
2022/07/02 10:53:18;;;;;;;10.57;3.17;;;;;;;22.14;64.81;99855.53;5046967;28;20089;-62
2022/07/02 10:56:02;;;;;;;5.07;1.70;;;;;;;22.16;65.00;99866.91;5047061;28;20072;-62
2022/07/02 10:58:39;;;;;;;6.90;3.13;;;;;;;22.20;64.13;99875.59;5047165;28;20104;-62
2022/07/02 11:01:13;;;;;;;7.77;2.13;;;;;;;22.14;64.42;99866.16;5046625;28;20590;-62
2022/07/02 11:03:56;;;;;;;16.67;9.10;;;;;;;22.06;64.62;99874.69;5046707;28;20110;-62
2022/07/02 11:06:29;;;;;;;19.57;5.27;;;;;;;21.97;64.91;99870.03;5046234;28;20063;-62
2022/07/02 11:09:01;;;;;;;22.47;3.10;;;;;;;21.90;65.05;99869.59;5046385;28;20065;-62
2022/07/02 11:11:52;;;;;;;7.93;1.93;;;;;;;21.81;65.79;99875.56;5046553;28;20191;-61
2022/07/02 11:14:27;;;;;;;6.97;2.73;;;;;;;21.72;66.30;99887.69;5046560;28;20061;-62
2022/07/02 11:16:57;;;;;;;11.40;3.13;;;;;;;21.64;66.38;99883.84;5046321;28;20880;-62
2022/07/02 11:19:30;;;;;;;5.67;2.70;;;;;;;21.57;66.48;99871.91;5046239;28;20434;-61
2022/07/02 11:22:04;;;;;;;8.97;2.23;;;;;;;21.56;66.73;99886.19;5046403;28;20072;-62
2022/07/02 11:24:35;;;;;;;10.77;2.40;;;;;;;21.51;67.32;99883.84;5043559;28;20480;-63
2022/07/02 11:27:06;;;;;;;12.70;1.90;;;;;;;21.41;67.49;99888.06;5045249;28;20300;-60
2022/07/02 11:29:37;;;;;;;15.87;2.63;;;;;;;21.35;67.63;99884.00;5045352;28;20299;-61
2022/07/02 11:32:08;;;;;;;7.30;1.97;;;;;;;21.31;67.99;99882.47;5045700;28;20638;-63
2022/07/02 11:34:38;;;;;;;5.57;1.70;;;;;;;21.27;68.01;99870.38;5046226;28;20294;-59
2022/07/02 11:37:22;;;;;;;6.33;1.70;;;;;;;21.19;68.56;99862.03;5045387;28;20316;-62
2022/07/02 11:39:52;;;;;;;4.83;1.20;;;;;;;21.11;68.96;99866.06;5045169;28;20322;-62
2022/07/02 11:42:37;;;;;;;4.30;1.20;;;;;;;20.94;69.01;99853.03;5046073;28;20275;-60
2022/07/02 11:45:08;;;;;;;10.43;1.90;;;;;;;21.02;69.20;99876.47;5044919;28;20284;-61
2022/07/02 11:47:47;;;;;;;7.30;1.93;;;;;;;20.99;69.25;99871.34;5044676;28;20298;-65
2022/07/02 11:50:28;;;;;;;4.50;2.17;;;;;;;20.92;69.64;99865.59;5046195;28;21093;-61
2022/07/02 11:53:01;;;;;;;51.93;5.23;;;;;;;20.74;69.94;99850.84;5044162;28;20357;-63
2022/07/02 11:55:31;;;;;;;28.87;3.97;;;;;;;20.85;70.16;99874.91;5045717;28;20642;-62
2022/07/02 11:58:02;;;;;;;79.73;9.90;;;;;;;20.82;70.33;99869.81;5045203;28;20350;-59
2022/07/02 12:00:33;;;;;;;19.93;5.20;;;;;;;20.70;70.97;99860.00;5045605;28;20288;-61
2022/07/02 12:03:10;;;;;;;9.97;2.90;;;;;;;20.68;71.13;99863.56;5045311;28;20294;-61
2022/07/02 12:05:51;;;;;;;8.03;1.80;;;;;;;20.65;71.70;99863.78;5045504;28;20276;-59
2022/07/02 12:08:24;;;;;;;8.13;2.03;;;;;;;20.62;71.75;99853.38;5045439;28;20355;-60
2022/07/02 12:10:54;;;;;;;6.07;1.63;;;;;;;20.62;72.14;99858.69;5045375;28;20311;-62
2022/07/02 12:13:25;;;;;;;3.97;1.60;;;;;;;20.54;72.72;99855.59;5045259;28;20315;-59
2022/07/02 12:15:55;;;;;;;6.20;2.10;;;;;;;20.50;72.79;99864.75;5045476;28;20559;-60
2022/07/02 12:18:26;;;;;;;3.90;1.93;;;;;;;20.50;73.22;99862.09;5045530;28;20280;-60
2022/07/02 12:20:57;;;;;;;2.70;2.00;;;;;;;20.58;72.46;99857.16;5045120;28;20272;-60
2022/07/02 12:23:29;;;;;;;9.33;2.03;;;;;;;20.55;72.95;99857.38;5045282;28;20643;-60
2022/07/02 12:25:59;;;;;;;9.03;1.90;;;;;;;20.45;73.70;99845.59;5044747;28;20338;-61
2022/07/02 12:31:14;;;;;;;3.40;2.20;;;;;;;20.41;74.44;99868.81;5016729;28;20284;-61
2022/07/02 12:33:44;;;;;;;4.07;2.30;;;;;;;20.37;74.84;99869.13;5044986;28;20312;-60
2022/07/02 12:36:15;;;;;;;5.53;2.50;;;;;;;20.33;74.73;99862.31;5044505;28;20290;-60
2022/07/02 12:38:47;;;;;;;5.90;2.57;;;;;;;20.34;74.64;99859.53;5044700;28;20284;-62
2022/07/02 12:41:18;;;;;;;6.17;1.90;;;;;;;20.37;74.42;99858.50;5045231;28;20487;-60
2022/07/02 12:43:56;;;;;;;8.80;1.93;;;;;;;20.43;74.22;99852.81;5045342;28;20287;-62
2022/07/02 12:46:26;;;;;;;20.53;2.50;;;;;;;20.38;74.64;99854.91;5044917;28;20292;-62
2022/07/02 12:48:57;;;;;;;6.17;2.13;;;;;;;20.30;74.98;99849.22;5045022;28;20280;-59
2022/07/02 12:51:27;;;;;;;6.17;2.30;;;;;;;20.25;75.41;99850.38;5044949;28;20291;-61